createdAt,value
2023-03-15T00:01:30.493Z,11.37
2023-03-15T00:03:58.661Z,7.93
2023-03-15T00:06:27.484Z,8.37
2023-03-15T00:08:56.481Z,8.97
2023-03-15T00:11:25.317Z,8.33
2023-03-15T00:13:53.542Z,9.07
2023-03-15T00:16:22.469Z,8.53
2023-03-15T00:18:56.532Z,7.73
2023-03-15T00:21:25.736Z,10.20
2023-03-15T00:23:53.835Z,8.70
2023-03-15T00:26:23.498Z,8.00
2023-03-15T00:28:51.629Z,8.00
2023-03-15T00:31:23.639Z,7.87
2023-03-15T00:33:54.797Z,7.80
2023-03-15T00:36:27.771Z,11.40
2023-03-15T00:38:57.892Z,8.47
2023-03-15T00:41:27.482Z,5.87
2023-03-15T00:43:55.623Z,3.73
2023-03-15T00:46:25.511Z,1.60
2023-03-15T00:48:55.035Z,4.97
2023-03-15T00:51:25.512Z,1.27
2023-03-15T00:53:55.074Z,1.53
2023-03-15T00:56:27.519Z,1.93
2023-03-15T00:58:55.690Z,1.40
2023-03-15T01:01:26.565Z,1.70
2023-03-15T01:03:56.666Z,1.73
2023-03-15T01:06:28.281Z,1.37
2023-03-15T01:09:01.784Z,1.43
2023-03-15T01:11:30.528Z,1.30
2023-03-15T01:14:00.345Z,1.43
2023-03-15T01:16:29.599Z,1.13
2023-03-15T01:19:00.285Z,1.13
2023-03-15T01:21:29.340Z,1.50
2023-03-15T01:23:58.538Z,1.13
2023-03-15T01:26:27.212Z,1.30
2023-03-15T01:28:57.531Z,2.37
2023-03-15T01:31:29.530Z,2.17
2023-03-15T01:34:01.541Z,1.40
2023-03-15T01:36:33.251Z,1.50
2023-03-15T01:39:03.518Z,2.53
2023-03-15T01:41:40.501Z,1.93
2023-03-15T01:44:15.871Z,1.83
2023-03-15T01:46:45.250Z,1.97
2023-03-15T01:49:25.202Z,1.80
2023-03-15T01:52:00.332Z,1.93
2023-03-15T01:54:43.590Z,2.37
2023-03-15T01:57:17.523Z,1.43
2023-03-15T01:59:51.109Z,1.60
2023-03-15T02:02:22.672Z,1.77
2023-03-15T02:04:58.452Z,2.50
2023-03-15T02:07:29.949Z,1.83
2023-03-15T02:10:06.546Z,1.50
2023-03-15T02:12:40.716Z,3.90
2023-03-15T02:15:14.544Z,3.17
2023-03-15T02:17:45.004Z,2.43
2023-03-15T02:20:27.592Z,2.73
2023-03-15T02:22:59.812Z,2.43
2023-03-15T02:25:39.554Z,2.03
2023-03-15T02:28:14.926Z,1.90
2023-03-15T02:30:45.546Z,2.07
2023-03-15T02:33:18.698Z,1.93
2023-03-15T02:35:47.004Z,2.10
2023-03-15T02:38:16.323Z,3.50
2023-03-15T02:40:46.271Z,4.80
2023-03-15T02:43:20.554Z,3.70
2023-03-15T02:45:49.300Z,3.20
2023-03-15T02:48:19.548Z,2.00
2023-03-15T02:50:47.670Z,2.77
2023-03-15T02:53:17.390Z,3.53
2023-03-15T02:55:45.503Z,1.63
2023-03-15T02:58:16.581Z,2.90
2023-03-15T03:00:45.549Z,3.43
2023-03-15T03:03:13.821Z,3.80
2023-03-15T03:05:42.045Z,3.13
2023-03-15T03:08:10.404Z,3.20
2023-03-15T03:10:39.574Z,2.90
2023-03-15T03:13:07.714Z,5.47
2023-03-15T03:15:40.555Z,3.33
2023-03-15T03:18:09.565Z,4.13
2023-03-15T03:20:37.994Z,2.27
2023-03-15T03:23:07.437Z,3.73
2023-03-15T03:25:38.487Z,2.90
2023-03-15T03:28:07.380Z,3.10
2023-03-15T03:30:36.845Z,4.00
2023-03-15T03:33:06.587Z,1.77
2023-03-15T03:35:34.881Z,3.00
2023-03-15T03:38:06.587Z,2.53
2023-03-15T03:40:39.579Z,3.10
2023-03-15T03:43:10.565Z,4.77
2023-03-15T03:45:42.363Z,1.97
2023-03-15T03:48:13.568Z,5.03
2023-03-15T03:50:41.711Z,4.90
2023-03-15T03:53:12.577Z,3.57
2023-03-15T03:55:42.766Z,5.50
2023-03-15T03:58:12.549Z,3.37
2023-03-15T04:00:45.736Z,3.43
2023-03-15T04:03:19.201Z,5.20
2023-03-15T04:05:52.902Z,2.67
2023-03-15T04:08:25.567Z,4.93
2023-03-15T04:10:55.292Z,4.93
2023-03-15T04:13:27.619Z,4.13
2023-03-15T04:16:03.769Z,5.07
2023-03-15T04:18:43.566Z,4.13
2023-03-15T04:21:13.070Z,7.47
2023-03-15T04:23:48.186Z,4.97
2023-03-15T04:26:30.656Z,4.43
2023-03-15T04:29:14.616Z,4.43
2023-03-15T04:32:18.098Z,3.40
2023-03-15T04:35:12.598Z,4.87
2023-03-15T04:38:01.564Z,4.83
2023-03-15T04:40:44.253Z,9.50
2023-03-15T04:43:41.570Z,6.83
2023-03-15T04:46:36.666Z,3.83
2023-03-15T04:49:12.250Z,7.53
2023-03-15T04:51:59.607Z,6.83
2023-03-15T04:54:40.715Z,6.40
2023-03-15T04:57:24.632Z,6.77
2023-03-15T05:00:04.059Z,7.60
2023-03-15T05:02:55.574Z,6.50
2023-03-15T05:05:46.012Z,6.07
2023-03-15T05:08:36.726Z,6.50
2023-03-15T05:11:28.223Z,5.53
2023-03-15T05:14:19.615Z,4.93
2023-03-15T05:17:10.600Z,7.50
2023-03-15T05:20:14.693Z,4.93
2023-03-15T05:22:53.458Z,5.07
2023-03-15T05:25:39.108Z,5.10
2023-03-15T05:28:10.381Z,6.50
2023-03-15T05:30:54.580Z,4.20
2023-03-15T05:33:47.143Z,7.60
2023-03-15T05:36:34.905Z,7.83
2023-03-15T05:39:23.056Z,9.60
2023-03-15T05:42:12.448Z,12.43
2023-03-15T05:45:15.916Z,5.43
2023-03-15T05:48:05.036Z,6.60
2023-03-15T05:50:50.487Z,9.90
2023-03-15T05:53:18.602Z,8.57
2023-03-15T05:56:07.241Z,5.90
2023-03-15T05:58:55.805Z,7.30
2023-03-15T06:01:50.155Z,5.00
2023-03-15T06:04:27.590Z,4.53
2023-03-15T06:06:59.312Z,6.73
2023-03-15T06:09:34.359Z,7.27
2023-03-15T06:12:03.642Z,5.77
2023-03-15T06:14:35.611Z,4.80
2023-03-15T06:17:08.630Z,6.13
2023-03-15T06:19:38.019Z,4.63
2023-03-15T06:22:06.738Z,7.43
2023-03-15T06:24:43.504Z,9.27
2023-03-15T06:27:15.480Z,7.37
2023-03-15T06:29:44.967Z,6.73
2023-03-15T06:32:13.643Z,11.80
2023-03-15T06:34:43.552Z,7.73
2023-03-15T06:37:16.256Z,8.87
2023-03-15T06:39:46.755Z,9.77
2023-03-15T06:42:15.360Z,4.80
2023-03-15T06:44:45.069Z,10.23
2023-03-15T06:47:15.617Z,7.57
2023-03-15T06:49:43.795Z,5.90
2023-03-15T06:52:13.896Z,6.63
2023-03-15T06:54:45.852Z,7.40
2023-03-15T06:57:14.443Z,8.23
2023-03-15T06:59:44.072Z,6.20
2023-03-15T07:02:16.372Z,8.27
2023-03-15T07:04:46.173Z,10.17
2023-03-15T07:07:15.392Z,6.20
2023-03-15T07:09:47.385Z,11.93
2023-03-15T07:12:15.813Z,10.57
2023-03-15T07:14:46.625Z,8.47
2023-03-15T07:17:15.195Z,9.17
2023-03-15T07:19:55.817Z,9.53
2023-03-15T07:22:25.200Z,13.07
2023-03-15T07:24:53.742Z,9.30
2023-03-15T07:27:21.864Z,11.57
2023-03-15T07:29:51.604Z,11.97
2023-03-15T07:32:19.841Z,10.13
2023-03-15T07:34:48.033Z,14.13
2023-03-15T07:37:17.429Z,12.70
2023-03-15T07:39:45.582Z,11.00
2023-03-15T07:42:14.060Z,11.10
2023-03-15T07:44:45.483Z,11.47
2023-03-15T07:47:14.996Z,12.40
2023-03-15T07:49:43.115Z,12.80
2023-03-15T07:52:11.897Z,10.00
2023-03-15T07:54:40.753Z,11.90
2023-03-15T07:57:09.200Z,9.87
2023-03-15T07:59:37.305Z,10.73
2023-03-15T08:02:05.649Z,9.63
2023-03-15T08:04:36.916Z,12.23
2023-03-15T08:07:05.671Z,9.67
2023-03-15T08:09:34.691Z,16.50
2023-03-15T08:12:04.292Z,11.87
2023-03-15T08:14:32.631Z,12.03
2023-03-15T08:17:00.753Z,14.27
2023-03-15T08:19:29.944Z,11.47
2023-03-15T08:21:59.461Z,10.47
2023-03-15T08:24:27.728Z,12.37
2023-03-15T08:26:56.008Z,8.57
2023-03-15T08:29:24.132Z,10.13
2023-03-15T08:31:53.263Z,6.73
2023-03-15T08:34:22.080Z,9.40
2023-03-15T08:36:50.466Z,8.07
2023-03-15T08:39:24.031Z,11.70
2023-03-15T08:44:44.840Z,9.70
2023-03-15T08:47:13.338Z,8.73
2023-03-15T08:49:41.647Z,10.33
2023-03-15T08:52:10.080Z,11.80
2023-03-15T08:54:44.683Z,11.43
2023-03-15T08:57:13.586Z,11.00
2023-03-15T08:59:42.691Z,12.37
2023-03-15T09:02:12.496Z,10.63
2023-03-15T09:04:41.900Z,10.93
2023-03-15T09:07:10.147Z,8.83
2023-03-15T09:09:38.736Z,10.73
2023-03-15T09:12:09.016Z,10.33
2023-03-15T09:14:37.240Z,9.50
2023-03-15T09:17:08.552Z,6.40
2023-03-15T09:19:36.794Z,8.57
2023-03-15T09:22:16.412Z,5.80
2023-03-15T09:24:52.675Z,6.77
2023-03-15T09:27:22.306Z,6.87
2023-03-15T09:29:51.008Z,8.97
2023-03-15T09:32:19.201Z,7.37
2023-03-15T09:34:47.362Z,8.00
2023-03-15T09:37:15.470Z,7.37
2023-03-15T09:39:43.776Z,5.53
2023-03-15T09:42:21.712Z,9.83
2023-03-15T09:45:00.192Z,7.67
2023-03-15T09:47:41.259Z,7.23
2023-03-15T09:50:20.322Z,6.70
2023-03-15T09:52:51.969Z,8.97
2023-03-15T09:55:24.103Z,8.97
2023-03-15T09:57:55.726Z,7.20
2023-03-15T10:00:31.491Z,6.43
2023-03-15T10:03:07.081Z,7.53
2023-03-15T10:05:41.696Z,7.57
2023-03-15T10:08:14.090Z,5.57
2023-03-15T10:10:51.730Z,6.40
2023-03-15T10:13:36.792Z,6.90
2023-03-15T10:16:18.305Z,9.20
2023-03-15T10:19:03.064Z,9.83
2023-03-15T10:21:40.177Z,10.73
2023-03-15T10:24:17.056Z,7.17
2023-03-15T10:29:18.555Z,9.67
2023-03-15T10:31:48.409Z,8.70
2023-03-15T10:34:17.048Z,10.77
2023-03-15T10:36:49.336Z,8.67
2023-03-15T10:39:19.365Z,11.00
2023-03-15T10:41:51.024Z,8.53
2023-03-15T10:44:21.945Z,8.67
2023-03-15T10:47:21.320Z,9.73
2023-03-15T10:49:58.834Z,8.80
2023-03-15T10:52:36.314Z,8.80
2023-03-15T10:55:07.892Z,10.60
2023-03-15T10:57:42.616Z,8.30
2023-03-15T11:00:26.893Z,7.97
2023-03-15T11:03:08.784Z,8.03
2023-03-15T11:05:43.524Z,9.07
2023-03-15T11:08:15.799Z,9.10
2023-03-15T11:10:45.439Z,8.93
2023-03-15T11:13:22.768Z,8.63
2023-03-15T11:16:04.497Z,13.57
2023-03-15T11:18:44.369Z,6.73
2023-03-15T11:21:16.004Z,9.13
2023-03-15T11:23:46.743Z,7.57
2023-03-15T11:26:31.499Z,11.63
2023-03-15T11:29:08.372Z,11.93
2023-03-15T11:31:37.487Z,8.80
2023-03-15T11:34:13.638Z,11.30
2023-03-15T11:36:49.091Z,7.17
2023-03-15T11:39:34.050Z,9.10
2023-03-15T11:42:10.535Z,9.27
2023-03-15T11:44:45.173Z,6.50
2023-03-15T11:47:19.495Z,6.63
2023-03-15T11:49:52.345Z,10.53
2023-03-15T11:52:23.416Z,11.90
2023-03-15T11:54:52.744Z,8.90
2023-03-15T11:57:44.538Z,8.90
2023-03-15T12:00:55.053Z,10.10
2023-03-15T12:03:42.313Z,8.93
2023-03-15T12:06:38.533Z,10.43
2023-03-15T12:09:48.956Z,9.33
2023-03-15T12:12:40.903Z,9.23
2023-03-15T12:15:43.934Z,9.87
2023-03-15T12:18:20.739Z,12.47
2023-03-15T12:20:59.761Z,7.53
2023-03-15T12:23:38.228Z,8.90
2023-03-15T12:26:10.611Z,9.10
2023-03-15T12:28:41.542Z,9.17
2023-03-15T12:31:14.094Z,5.53
2023-03-15T12:33:49.208Z,8.23
2023-03-15T12:36:30.970Z,6.63
2023-03-15T12:39:22.042Z,6.37
2023-03-15T12:41:53.756Z,7.57
2023-03-15T12:44:28.144Z,8.50
2023-03-15T12:47:00.708Z,7.80
2023-03-15T12:49:36.754Z,9.17
2023-03-15T12:52:07.460Z,9.37
2023-03-15T12:54:44.274Z,6.93
2023-03-15T12:57:17.659Z,11.20
2023-03-15T12:59:51.295Z,5.23
2023-03-15T13:02:42.135Z,7.30
2023-03-15T13:05:30.020Z,5.50
2023-03-15T13:08:09.116Z,9.30
2023-03-15T13:10:45.344Z,5.70
2023-03-15T13:13:25.668Z,8.60
2023-03-15T13:16:15.425Z,11.07
2023-03-15T13:18:54.161Z,13.87
2023-03-15T13:21:28.592Z,9.67
2023-03-15T13:24:00.090Z,17.23
2023-03-15T13:26:48.527Z,5.60
2023-03-15T13:29:19.532Z,7.10
2023-03-15T13:32:02.810Z,7.93
2023-03-15T13:34:34.216Z,6.20
2023-03-15T13:37:03.448Z,10.03
2023-03-15T13:39:33.238Z,9.67
2023-03-15T13:42:04.810Z,8.17
2023-03-15T13:44:34.857Z,8.27
2023-03-15T13:47:03.171Z,8.37
2023-03-15T13:49:35.815Z,6.27
2023-03-15T13:52:12.334Z,6.17
2023-03-15T13:54:44.797Z,9.03
2023-03-15T13:57:17.805Z,4.70
2023-03-15T13:59:52.823Z,6.80
2023-03-15T14:02:25.134Z,9.07
2023-03-15T14:05:00.659Z,7.87
2023-03-15T14:07:34.850Z,5.57
2023-03-15T14:10:27.077Z,7.33
2023-03-15T14:12:58.570Z,11.27
2023-03-15T14:15:36.334Z,5.40
2023-03-15T14:18:17.751Z,7.10
2023-03-15T14:20:48.673Z,5.77
2023-03-15T14:23:23.032Z,6.93
2023-03-15T14:25:53.980Z,11.30
2023-03-15T14:28:24.771Z,11.30
2023-03-15T14:30:56.484Z,9.93
2023-03-15T14:33:32.902Z,6.43
2023-03-15T14:36:03.131Z,10.83
2023-03-15T14:38:37.820Z,8.00
2023-03-15T14:41:19.614Z,6.67
2023-03-15T14:43:49.200Z,7.70
2023-03-15T14:46:17.765Z,6.37
2023-03-15T14:48:46.452Z,7.80
2023-03-15T14:51:17.185Z,6.13
2023-03-15T14:53:47.643Z,9.80
2023-03-15T14:56:17.132Z,6.43
2023-03-15T14:58:46.291Z,6.50
2023-03-15T15:01:18.675Z,4.37
2023-03-15T15:03:49.402Z,7.63
2023-03-15T15:06:20.402Z,7.03
2023-03-15T15:08:52.383Z,7.17
2023-03-15T15:11:20.788Z,6.70
2023-03-15T15:13:49.047Z,4.43
2023-03-15T15:16:18.912Z,7.50
2023-03-15T15:18:47.144Z,7.43
2023-03-15T15:21:20.325Z,9.17
2023-03-15T15:23:58.078Z,7.00
2023-03-15T15:26:29.604Z,6.37
2023-03-15T15:28:58.500Z,8.27
2023-03-15T15:31:29.073Z,9.67
2023-03-15T15:33:58.045Z,8.13
2023-03-15T15:36:31.129Z,6.80
2023-03-15T15:39:06.412Z,6.63
2023-03-15T15:41:35.397Z,7.63
2023-03-15T15:44:03.839Z,7.10
2023-03-15T15:46:35.847Z,7.83
2023-03-15T15:49:07.269Z,8.47
2023-03-15T15:51:38.690Z,7.47
2023-03-15T15:54:08.848Z,8.93
2023-03-15T15:56:40.219Z,5.83
2023-03-15T15:59:13.758Z,8.90
2023-03-15T16:01:58.943Z,8.30
2023-03-15T16:04:32.968Z,7.90
2023-03-15T16:07:03.547Z,10.67
2023-03-15T16:09:35.926Z,9.20
2023-03-15T16:12:04.847Z,9.23
2023-03-15T16:14:32.953Z,9.77
2023-03-15T16:17:02.473Z,8.83
2023-03-15T16:19:30.677Z,9.60
2023-03-15T16:21:58.843Z,10.77
2023-03-15T16:24:30.186Z,8.90
2023-03-15T16:27:01.849Z,11.13
2023-03-15T16:29:37.155Z,8.67
2023-03-15T16:32:17.927Z,11.17
2023-03-15T16:34:52.370Z,11.17
2023-03-15T16:37:24.291Z,9.53
2023-03-15T16:39:55.671Z,9.67
2023-03-15T16:42:25.789Z,8.57
2023-03-15T16:44:54.552Z,9.30
2023-03-15T16:47:27.714Z,10.83
2023-03-15T16:49:55.850Z,9.17
2023-03-15T16:52:24.017Z,11.47
2023-03-15T16:54:53.852Z,9.37
2023-03-15T16:57:23.857Z,11.20
2023-03-15T16:59:52.327Z,13.00
2023-03-15T17:02:22.617Z,10.20
2023-03-15T17:04:53.848Z,12.93
2023-03-15T17:07:25.727Z,20.33
2023-03-15T17:09:54.992Z,12.97
2023-03-15T17:12:26.189Z,14.83
2023-03-15T17:14:58.965Z,12.63
2023-03-15T17:17:30.001Z,14.10
2023-03-15T17:20:00.397Z,13.13
2023-03-15T17:22:29.486Z,10.67
2023-03-15T17:24:57.618Z,11.83
2023-03-15T17:27:33.894Z,15.97
2023-03-15T17:30:02.068Z,11.00
2023-03-15T17:32:31.402Z,12.97
2023-03-15T17:35:04.475Z,16.70
2023-03-15T17:37:35.607Z,13.60
2023-03-15T17:40:12.590Z,15.83
2023-03-15T17:42:41.157Z,18.57
2023-03-15T17:45:20.495Z,12.73
2023-03-15T17:47:48.908Z,14.23
2023-03-15T17:50:19.527Z,15.90
2023-03-15T17:52:51.155Z,17.57
2023-03-15T17:55:22.637Z,21.03
2023-03-15T17:57:55.208Z,15.47
2023-03-15T18:00:25.344Z,17.20
2023-03-15T18:02:56.817Z,17.40
2023-03-15T18:05:29.068Z,18.17
2023-03-15T18:07:59.758Z,19.87
2023-03-15T18:10:37.911Z,18.43
2023-03-15T18:13:07.213Z,21.00
2023-03-15T18:15:36.199Z,24.37
2023-03-15T18:18:06.272Z,24.10
2023-03-15T18:20:36.443Z,19.97
2023-03-15T18:23:09.025Z,15.27
2023-03-15T18:25:37.448Z,21.53
2023-03-15T18:28:05.577Z,20.57
2023-03-15T18:30:34.523Z,19.77
2023-03-15T18:33:03.775Z,18.13
2023-03-15T18:35:37.684Z,23.33
2023-03-15T18:38:08.279Z,23.47
2023-03-15T18:40:36.681Z,22.63
2023-03-15T18:43:05.701Z,29.03
2023-03-15T18:45:35.843Z,21.03
2023-03-15T18:48:04.831Z,24.60
2023-03-15T18:50:34.499Z,22.97
2023-03-15T18:53:06.244Z,20.73
2023-03-15T18:55:35.151Z,22.67
2023-03-15T18:58:03.512Z,19.90
2023-03-15T19:00:36.191Z,18.87
2023-03-15T19:03:07.774Z,19.30
2023-03-15T19:05:38.390Z,18.13
2023-03-15T19:08:08.206Z,18.17
2023-03-15T19:10:39.175Z,21.70
2023-03-15T19:13:07.449Z,17.40
2023-03-15T19:15:35.750Z,25.60
2023-03-15T19:18:03.959Z,28.10
2023-03-15T19:20:32.143Z,34.73
2023-03-15T19:23:00.444Z,49.00
2023-03-15T19:25:30.059Z,28.67
2023-03-15T19:27:58.442Z,28.63
2023-03-15T19:30:27.923Z,20.17
2023-03-15T19:32:56.429Z,25.93
2023-03-15T19:35:24.920Z,18.43
2023-03-15T19:37:56.552Z,16.57
2023-03-15T19:40:25.263Z,22.67
2023-03-15T19:42:56.609Z,19.87
2023-03-15T19:45:24.793Z,23.47
2023-03-15T19:47:56.642Z,19.30
2023-03-15T19:50:24.851Z,20.07
2023-03-15T19:52:56.384Z,19.17
2023-03-15T19:55:27.989Z,19.87
2023-03-15T19:57:59.155Z,19.33
2023-03-15T20:00:27.633Z,16.97
2023-03-15T20:02:56.513Z,16.67
2023-03-15T20:05:25.682Z,19.77
2023-03-15T20:07:54.360Z,17.50
2023-03-15T20:10:23.419Z,15.67
2023-03-15T20:12:55.804Z,14.27
2023-03-15T20:15:28.165Z,14.73
2023-03-15T20:17:57.894Z,15.20
2023-03-15T20:20:26.060Z,18.43
2023-03-15T20:22:54.339Z,14.63
2023-03-15T20:25:23.986Z,16.37
2023-03-15T20:27:52.176Z,16.33
2023-03-15T20:30:22.289Z,16.90
2023-03-15T20:32:51.987Z,19.40
2023-03-15T20:35:20.987Z,18.33
2023-03-15T20:37:53.106Z,19.50
2023-03-15T20:40:22.331Z,17.33
2023-03-15T20:42:50.676Z,16.87
2023-03-15T20:45:20.932Z,20.87
2023-03-15T20:47:49.938Z,15.77
2023-03-15T20:50:23.437Z,15.50
2023-03-15T20:52:52.959Z,18.13
2023-03-15T20:55:21.209Z,15.93
2023-03-15T20:57:49.529Z,13.37
2023-03-15T21:00:20.434Z,17.57
2023-03-15T21:02:51.456Z,17.33
2023-03-15T21:05:20.329Z,20.20
2023-03-15T21:07:50.234Z,16.00
2023-03-15T21:10:18.957Z,15.50
2023-03-15T21:12:47.128Z,17.13
2023-03-15T21:15:18.035Z,15.23
2023-03-15T21:17:49.954Z,17.80
2023-03-15T21:20:18.559Z,15.53
2023-03-15T21:22:46.745Z,13.60
2023-03-15T21:25:17.373Z,17.27
2023-03-15T21:27:49.956Z,14.57
2023-03-15T21:30:18.887Z,18.50
2023-03-15T21:32:48.951Z,21.40
2023-03-15T21:35:18.229Z,17.00
2023-03-15T21:37:46.620Z,18.63
2023-03-15T21:40:17.948Z,20.17
2023-03-15T21:42:47.854Z,21.63
2023-03-15T21:45:21.283Z,21.47
2023-03-15T21:47:49.499Z,21.07
2023-03-15T21:50:18.207Z,19.20
2023-03-15T21:52:46.343Z,20.50
2023-03-15T21:55:16.413Z,22.97
2023-03-15T21:57:48.753Z,18.60
2023-03-15T22:00:19.946Z,24.77
2023-03-15T22:02:49.946Z,18.23
2023-03-15T22:05:18.182Z,23.53
2023-03-15T22:07:46.957Z,25.47
2023-03-15T22:10:19.939Z,21.57
2023-03-15T22:12:48.177Z,21.33
2023-03-15T22:15:16.947Z,27.97
2023-03-15T22:17:46.058Z,28.60
2023-03-15T22:20:16.928Z,24.03
2023-03-15T22:22:50.026Z,26.50
2023-03-15T22:25:19.948Z,25.87
2023-03-15T22:27:48.944Z,24.10
2023-03-15T22:30:17.954Z,23.60
2023-03-15T22:32:50.082Z,24.30
2023-03-15T22:35:19.089Z,27.53
2023-03-15T22:37:49.407Z,30.53
2023-03-15T22:40:19.276Z,27.70
2023-03-15T22:42:51.983Z,29.90
2023-03-15T22:45:20.444Z,30.70
2023-03-15T22:47:49.118Z,31.00
2023-03-15T22:50:18.982Z,28.40
2023-03-15T22:52:47.146Z,33.97
2023-03-15T22:55:16.930Z,27.47
2023-03-15T22:57:48.010Z,29.40
2023-03-15T23:00:20.944Z,32.47
2023-03-15T23:02:53.070Z,30.90
2023-03-15T23:05:21.438Z,32.20
2023-03-15T23:07:49.971Z,30.17
2023-03-15T23:10:18.969Z,30.53
2023-03-15T23:12:48.978Z,29.03
2023-03-15T23:15:17.271Z,27.60
2023-03-15T23:17:46.817Z,32.23
2023-03-15T23:20:16.075Z,31.50
2023-03-15T23:22:45.706Z,28.23
2023-03-15T23:25:16.244Z,28.63
2023-03-15T23:27:44.934Z,27.20
2023-03-15T23:30:16.019Z,28.40
2023-03-15T23:32:45.050Z,26.90
2023-03-15T23:35:15.971Z,25.03
2023-03-15T23:37:44.229Z,26.90
2023-03-15T23:40:17.894Z,28.67
2023-03-15T23:42:46.993Z,30.37
2023-03-15T23:45:16.935Z,27.37
2023-03-15T23:47:47.015Z,32.17
2023-03-15T23:50:16.221Z,32.07
2023-03-15T23:52:45.828Z,29.70
2023-03-15T23:55:14.032Z,29.13
2023-03-15T23:57:42.359Z,29.73
